Terminal Aerodrome Forecast
Issued by NWS

Home | Current Version | Previous Version | Text Only | Print | Product List | Glossary On
Versions: 1 2 3 4 5 6 7 8 9 10 11 12
000
FTUS44 KTSA 302300
TAFXNA
TAF
KXNA 302327Z 3100/3124 22009KT P6SM SKC
     FM310700 18003KT 4SM BR OVC010
     FM311000 19004KT 2SM BR OVC005
     FM311500 20005KT P6SM BKN015
     FM311700 23005KT P6SM SCT030=

USA.gov is the U.S. government's official web portal to all federal, state and local government web resources and services.